createdAt,value
2018-01-10T00:01:00.242Z,26.20
2018-01-10T00:03:27.643Z,25.70
2018-01-10T00:05:55.058Z,27.57
2018-01-10T00:08:22.454Z,27.90
2018-01-10T00:10:49.850Z,26.10
2018-01-10T00:13:17.250Z,27.57
2018-01-10T00:15:44.646Z,29.13
2018-01-10T00:18:12.047Z,29.47
2018-01-10T00:20:39.452Z,29.33
2018-01-10T00:23:06.826Z,27.03
2018-01-10T00:25:34.230Z,27.53
2018-01-10T00:28:01.618Z,27.20
2018-01-10T00:30:29.018Z,26.03
2018-01-10T00:32:56.441Z,25.60
2018-01-10T00:35:23.850Z,28.00
2018-01-10T00:37:51.239Z,24.87
2018-01-10T00:40:18.643Z,26.60
2018-01-10T00:42:46.032Z,27.97
2018-01-10T00:45:13.464Z,26.17
2018-01-10T00:47:40.878Z,26.17
2018-01-10T00:50:08.294Z,26.40
2018-01-10T00:52:35.749Z,26.63
2018-01-10T00:55:03.153Z,27.40
2018-01-10T00:57:30.627Z,25.50
2018-01-10T00:59:58.012Z,25.97
2018-01-10T01:02:25.416Z,25.87
2018-01-10T01:04:52.807Z,24.00
2018-01-10T01:07:20.240Z,25.57
2018-01-10T01:09:47.611Z,24.87
2018-01-10T01:12:15.045Z,24.30
2018-01-10T01:14:42.418Z,25.37
2018-01-10T01:17:09.822Z,25.60
2018-01-10T01:19:37.219Z,25.93
2018-01-10T01:22:04.628Z,25.60
2018-01-10T01:24:32.117Z,25.50
2018-01-10T01:26:59.537Z,25.27
2018-01-10T01:29:27.026Z,26.13
2018-01-10T01:31:54.438Z,26.70
2018-01-10T01:34:21.839Z,24.47
2018-01-10T01:36:49.229Z,23.80
2018-01-10T01:39:16.621Z,23.97
2018-01-10T01:41:44.027Z,25.70
2018-01-10T01:44:11.426Z,25.30
2018-01-10T01:46:38.919Z,23.83
2018-01-10T01:49:06.306Z,25.50
2018-01-10T01:51:33.709Z,24.43
2018-01-10T01:54:01.120Z,27.03
2018-01-10T01:56:28.498Z,24.67
2018-01-10T01:58:55.910Z,26.50
2018-01-10T02:01:23.319Z,26.53
2018-01-10T02:03:50.723Z,24.90
2018-01-10T02:06:18.162Z,26.20
2018-01-10T02:08:45.547Z,26.43
2018-01-10T02:11:12.938Z,24.37
2018-01-10T02:13:40.347Z,26.03
2018-01-10T02:16:07.738Z,25.53
2018-01-10T02:18:35.249Z,24.80
2018-01-10T02:21:02.627Z,25.70
2018-01-10T02:23:30.031Z,25.13
2018-01-10T02:25:57.420Z,25.50
2018-01-10T02:28:24.826Z,24.23
2018-01-10T02:30:52.226Z,23.97
2018-01-10T02:33:19.626Z,23.80
2018-01-10T02:35:47.022Z,25.37
2018-01-10T02:38:14.415Z,23.20
2018-01-10T02:40:41.814Z,22.20
2018-01-10T02:43:09.288Z,22.83
2018-01-10T02:45:36.682Z,24.10
2018-01-10T02:48:04.087Z,23.47
2018-01-10T02:50:31.491Z,25.00
2018-01-10T02:52:58.899Z,24.17
2018-01-10T02:55:26.299Z,24.40
2018-01-10T02:57:53.694Z,22.37
2018-01-10T03:00:21.090Z,22.13
2018-01-10T03:02:48.526Z,23.90
2018-01-10T03:05:15.941Z,23.43
2018-01-10T03:07:43.335Z,23.80
2018-01-10T03:10:10.734Z,26.33
2018-01-10T03:12:38.130Z,25.17
2018-01-10T03:15:05.535Z,23.03
2018-01-10T03:17:32.963Z,23.70
2018-01-10T03:20:00.364Z,24.57
2018-01-10T03:22:27.757Z,24.50
2018-01-10T03:24:55.174Z,23.90
2018-01-10T03:27:22.551Z,23.47
2018-01-10T03:29:49.952Z,25.30
2018-01-10T03:32:17.356Z,23.20
2018-01-10T03:34:44.761Z,23.57
2018-01-10T03:37:12.161Z,22.80
2018-01-10T03:39:39.559Z,25.07
2018-01-10T03:42:06.946Z,23.13
2018-01-10T03:44:34.362Z,24.87
2018-01-10T03:47:01.756Z,24.23
2018-01-10T03:49:29.152Z,24.10
2018-01-10T03:51:56.554Z,24.40
2018-01-10T03:54:23.946Z,25.40
2018-01-10T03:56:51.350Z,25.00
2018-01-10T03:59:18.750Z,25.37
2018-01-10T04:01:46.161Z,25.67
2018-01-10T04:04:13.548Z,24.10
2018-01-10T04:06:40.951Z,25.70
2018-01-10T04:09:08.351Z,25.50
2018-01-10T04:11:35.747Z,24.90
2018-01-10T04:14:03.134Z,23.97
2018-01-10T04:16:30.554Z,23.47
2018-01-10T04:18:57.955Z,24.37
2018-01-10T04:21:25.358Z,22.93
2018-01-10T04:23:52.756Z,23.73
2018-01-10T04:26:20.177Z,24.80
2018-01-10T04:28:47.562Z,24.07
2018-01-10T04:31:14.974Z,26.03
2018-01-10T04:33:42.354Z,22.83
2018-01-10T04:36:09.757Z,25.07
2018-01-10T04:38:37.152Z,23.43
2018-01-10T04:41:04.564Z,24.40
2018-01-10T04:43:31.958Z,23.40
2018-01-10T04:45:59.355Z,24.30
2018-01-10T04:48:26.776Z,24.80
2018-01-10T04:50:54.274Z,25.97
2018-01-10T04:53:21.683Z,25.17
2018-01-10T04:55:49.077Z,23.17
2018-01-10T04:58:16.479Z,25.20
2018-01-10T05:00:43.880Z,23.87
2018-01-10T05:03:11.279Z,24.17
2018-01-10T05:05:38.674Z,25.67
2018-01-10T05:08:06.076Z,26.60
2018-01-10T05:10:33.511Z,23.70
2018-01-10T05:13:00.912Z,24.23
2018-01-10T05:15:28.316Z,24.93
2018-01-10T05:17:55.720Z,25.73
2018-01-10T05:20:23.118Z,24.10
2018-01-10T05:22:50.522Z,25.07
2018-01-10T05:25:17.906Z,24.27
2018-01-10T05:27:45.315Z,24.67
2018-01-10T05:30:12.794Z,24.08
2018-01-10T05:32:40.162Z,23.63
2018-01-10T05:35:07.548Z,22.07
2018-01-10T05:37:34.958Z,23.77
2018-01-10T05:40:02.358Z,22.70
2018-01-10T05:42:29.749Z,22.40
2018-01-10T05:44:57.145Z,22.97
2018-01-10T05:47:24.542Z,23.30
2018-01-10T05:49:51.946Z,22.10
2018-01-10T05:52:19.334Z,22.00
2018-01-10T05:54:46.731Z,21.97
2018-01-10T05:57:14.125Z,21.83
2018-01-10T05:59:41.532Z,22.53
2018-01-10T06:02:08.931Z,21.47
2018-01-10T06:04:36.326Z,22.30
2018-01-10T06:07:03.727Z,21.27
2018-01-10T06:09:31.137Z,20.90
2018-01-10T06:11:58.579Z,22.60
2018-01-10T06:14:25.982Z,19.97
2018-01-10T06:16:53.377Z,21.97
2018-01-10T06:19:20.815Z,22.70
2018-01-10T06:21:48.200Z,22.60
2018-01-10T06:24:15.607Z,23.83
2018-01-10T06:26:42.999Z,22.07
2018-01-10T06:29:10.423Z,23.60
2018-01-10T06:31:37.823Z,23.63
2018-01-10T06:34:05.218Z,24.50
2018-01-10T06:36:32.622Z,26.60
2018-01-10T06:39:00.017Z,26.60
2018-01-10T06:41:27.419Z,23.30
2018-01-10T06:43:54.811Z,23.20
2018-01-10T06:46:22.216Z,21.87
2018-01-10T06:48:49.607Z,22.30
2018-01-10T06:51:17.005Z,22.97
2018-01-10T06:53:44.408Z,23.40
2018-01-10T06:56:11.859Z,23.47
2018-01-10T06:58:39.235Z,22.27
2018-01-10T07:01:06.643Z,23.10
2018-01-10T07:03:34.045Z,22.77
2018-01-10T07:06:01.434Z,23.47
2018-01-10T07:08:28.822Z,21.93
2018-01-10T07:10:56.224Z,22.73
2018-01-10T07:13:23.619Z,22.60
2018-01-10T07:15:51.027Z,21.77
2018-01-10T07:18:18.426Z,23.40
2018-01-10T07:20:45.846Z,22.13
2018-01-10T07:23:13.236Z,23.80
2018-01-10T07:25:40.645Z,22.00
2018-01-10T07:28:08.039Z,23.50
2018-01-10T07:30:35.434Z,22.87
2018-01-10T07:33:02.843Z,24.00
2018-01-10T07:35:30.239Z,22.77
2018-01-10T07:37:57.641Z,22.90
2018-01-10T07:40:25.031Z,25.23
2018-01-10T07:42:52.435Z,24.80
2018-01-10T07:45:19.856Z,25.03
2018-01-10T07:47:47.255Z,23.53
2018-01-10T07:50:14.647Z,24.10
2018-01-10T07:52:42.050Z,23.50
2018-01-10T07:55:09.450Z,24.80
2018-01-10T07:57:36.846Z,21.53
2018-01-10T08:00:04.241Z,21.67
2018-01-10T08:02:31.645Z,21.07
2018-01-10T08:04:59.043Z,21.60
2018-01-10T08:07:26.455Z,22.30
2018-01-10T08:09:53.847Z,20.87
2018-01-10T08:12:21.252Z,20.70
2018-01-10T08:14:48.645Z,22.43
2018-01-10T08:17:16.059Z,22.60
2018-01-10T08:19:43.450Z,22.80
2018-01-10T08:22:10.841Z,20.80
2018-01-10T08:24:38.238Z,20.57
2018-01-10T08:27:05.635Z,19.80
2018-01-10T08:29:33.041Z,22.20
2018-01-10T08:32:00.435Z,20.67
2018-01-10T08:34:28.798Z,23.47
2018-01-10T08:36:56.186Z,22.77
2018-01-10T08:39:23.594Z,22.30
2018-01-10T08:41:50.987Z,21.47
2018-01-10T08:44:18.388Z,22.33
2018-01-10T08:46:45.784Z,21.57
2018-01-10T08:49:13.191Z,20.87
2018-01-10T08:51:40.582Z,21.27
2018-01-10T08:54:07.984Z,20.20
2018-01-10T08:56:35.375Z,19.93
2018-01-10T08:59:02.783Z,19.63
2018-01-10T09:01:30.267Z,20.60
2018-01-10T09:03:57.667Z,19.13
2018-01-10T09:06:25.711Z,19.13
2018-01-10T09:08:53.113Z,18.07
2018-01-10T09:11:20.508Z,18.67
2018-01-10T09:13:47.910Z,18.40
2018-01-10T09:16:15.303Z,19.80
2018-01-10T09:18:42.706Z,17.70
2018-01-10T09:21:10.103Z,17.77
2018-01-10T09:23:37.491Z,16.07
2018-01-10T09:26:04.891Z,16.20
2018-01-10T09:28:32.287Z,14.40
2018-01-10T09:30:59.701Z,16.85
2018-01-10T09:33:27.104Z,15.33
2018-01-10T09:35:54.510Z,16.83
2018-01-10T09:38:21.913Z,15.60
2018-01-10T09:40:49.311Z,15.63
2018-01-10T09:43:16.710Z,15.97
2018-01-10T09:45:44.133Z,16.30
2018-01-10T09:48:11.523Z,18.07
2018-01-10T09:50:38.922Z,17.17
2018-01-10T09:53:06.315Z,17.97
2018-01-10T09:55:33.727Z,17.53
2018-01-10T09:58:01.119Z,15.43
2018-01-10T10:00:28.539Z,15.83
2018-01-10T10:02:55.936Z,15.37
2018-01-10T10:05:23.346Z,14.80
2018-01-10T10:07:50.748Z,15.00
2018-01-10T10:10:18.164Z,16.20
2018-01-10T10:12:46.351Z,17.30
2018-01-10T10:15:13.750Z,15.90
2018-01-10T10:17:41.207Z,17.30
2018-01-10T10:20:08.611Z,18.00
2018-01-10T10:22:36.011Z,16.03
2018-01-10T10:25:03.402Z,18.33
2018-01-10T10:27:30.801Z,19.53
2018-01-10T10:29:58.195Z,16.70
2018-01-10T10:32:25.634Z,19.33
2018-01-10T10:34:53.030Z,17.17
2018-01-10T10:37:20.431Z,19.47
2018-01-10T10:39:47.853Z,19.03
2018-01-10T10:42:15.240Z,19.90
2018-01-10T10:44:42.722Z,19.27
2018-01-10T10:47:10.094Z,18.63
2018-01-10T10:49:37.498Z,18.50
2018-01-10T10:52:04.902Z,17.63
2018-01-10T10:54:32.295Z,19.33
2018-01-10T10:56:59.712Z,18.53
2018-01-10T10:59:27.111Z,19.07
2018-01-10T11:01:54.516Z,20.00
2018-01-10T11:04:21.965Z,19.27
2018-01-10T11:06:49.353Z,20.70
2018-01-10T11:09:16.751Z,23.00
2018-01-10T11:11:44.143Z,21.80
2018-01-10T11:14:11.584Z,19.47
2018-01-10T11:16:39.886Z,20.53
2018-01-10T11:19:07.291Z,19.57
2018-01-10T11:21:34.697Z,20.50
2018-01-10T11:24:02.119Z,20.27
2018-01-10T11:26:29.515Z,17.93
2018-01-10T11:28:56.919Z,20.73
2018-01-10T11:31:24.323Z,19.40
2018-01-10T11:33:51.726Z,19.70
2018-01-10T11:36:19.118Z,19.23
2018-01-10T11:38:46.540Z,18.30
2018-01-10T11:41:14.007Z,19.90
2018-01-10T11:43:41.730Z,19.37
2018-01-10T11:46:09.122Z,18.93
2018-01-10T11:48:36.541Z,18.47
2018-01-10T11:51:03.927Z,19.30
2018-01-10T11:53:31.321Z,20.70
2018-01-10T11:55:58.718Z,19.60
2018-01-10T11:58:26.111Z,19.80
2018-01-10T12:00:53.524Z,18.73
2018-01-10T12:03:20.926Z,18.80
2018-01-10T12:05:48.343Z,18.83
2018-01-10T12:08:15.743Z,20.60
2018-01-10T12:10:43.140Z,17.53
2018-01-10T12:13:10.534Z,20.50
2018-01-10T12:15:37.933Z,21.30
2018-01-10T12:18:05.326Z,20.60
2018-01-10T12:20:32.799Z,21.37
2018-01-10T12:23:00.254Z,21.53
2018-01-10T12:25:27.658Z,22.60
2018-01-10T12:27:55.051Z,23.20
2018-01-10T12:30:22.614Z,19.10
2018-01-10T12:32:49.990Z,21.37
2018-01-10T12:35:17.395Z,21.53
2018-01-10T12:37:44.796Z,20.80
2018-01-10T12:40:12.185Z,20.87
2018-01-10T12:42:39.598Z,22.40
2018-01-10T12:45:07.003Z,20.07
2018-01-10T12:47:34.397Z,19.00
2018-01-10T12:50:01.790Z,19.73
2018-01-10T12:52:29.199Z,18.47
2018-01-10T12:54:56.590Z,18.47
2018-01-10T12:57:24.002Z,18.13
2018-01-10T12:59:51.401Z,19.50
2018-01-10T13:02:18.817Z,19.10
2018-01-10T13:04:46.225Z,18.20
2018-01-10T13:07:13.672Z,20.77
2018-01-10T13:09:41.064Z,18.90
2018-01-10T13:12:08.462Z,19.50
2018-01-10T13:14:35.855Z,20.30
2018-01-10T13:17:03.263Z,20.77
2018-01-10T13:19:30.662Z,19.93
2018-01-10T13:21:58.067Z,17.40
2018-01-10T13:24:25.519Z,18.17
2018-01-10T13:26:52.930Z,17.50
2018-01-10T13:29:20.319Z,18.30
2018-01-10T13:31:47.721Z,18.15
2018-01-10T13:34:15.146Z,17.73
2018-01-10T13:36:42.534Z,17.27
2018-01-10T13:39:09.937Z,17.97
2018-01-10T13:41:37.321Z,18.23
2018-01-10T13:44:04.735Z,17.00
2018-01-10T13:46:32.156Z,18.10
2018-01-10T13:48:59.561Z,17.63
2018-01-10T13:51:26.959Z,17.13
2018-01-10T13:53:54.359Z,16.23
2018-01-10T13:56:21.770Z,15.30
2018-01-10T13:58:49.181Z,16.63
2018-01-10T14:01:16.595Z,16.73
2018-01-10T14:03:44.000Z,16.97
2018-01-10T14:06:11.395Z,17.20
2018-01-10T14:08:38.800Z,17.63
2018-01-10T14:11:06.192Z,16.17
2018-01-10T14:13:33.599Z,17.20
2018-01-10T14:16:01.107Z,17.07
2018-01-10T14:18:28.510Z,17.70
2018-01-10T14:20:55.915Z,18.87
2018-01-10T14:23:23.315Z,17.60
2018-01-10T14:25:50.722Z,18.70
2018-01-10T14:28:18.142Z,17.03
2018-01-10T14:30:45.704Z,16.13
2018-01-10T14:33:13.043Z,16.87
2018-01-10T14:35:40.546Z,16.67
2018-01-10T14:38:07.950Z,15.10
2018-01-10T14:40:35.347Z,15.10
2018-01-10T14:43:02.740Z,16.63
2018-01-10T14:45:30.171Z,17.43
2018-01-10T14:47:57.567Z,16.60
2018-01-10T14:50:24.963Z,15.50
2018-01-10T14:52:52.367Z,15.47
2018-01-10T14:55:19.782Z,16.10
2018-01-10T14:57:47.178Z,15.60
2018-01-10T15:00:14.575Z,15.00
2018-01-10T15:02:41.975Z,15.33
2018-01-10T15:05:09.398Z,15.93
2018-01-10T15:07:36.786Z,15.33
2018-01-10T15:10:04.202Z,17.07
2018-01-10T15:12:31.696Z,16.87
2018-01-10T15:14:59.098Z,15.93
2018-01-10T15:17:26.506Z,16.07
2018-01-10T15:19:53.954Z,15.60
2018-01-10T15:22:21.407Z,15.90
2018-01-10T15:24:49.705Z,16.30
2018-01-10T15:27:17.095Z,15.63
2018-01-10T15:29:44.498Z,16.57
2018-01-10T15:32:11.899Z,16.70
2018-01-10T15:34:39.310Z,17.20
2018-01-10T15:37:06.699Z,15.93
2018-01-10T15:39:34.086Z,15.77
2018-01-10T15:42:01.512Z,19.00
2018-01-10T15:44:28.902Z,19.10
2018-01-10T15:46:56.311Z,22.10
2018-01-10T15:49:23.707Z,19.33
2018-01-10T15:51:51.190Z,18.70
2018-01-10T15:54:18.579Z,17.40
2018-01-10T15:56:45.997Z,16.40
2018-01-10T15:59:13.392Z,16.90
2018-01-10T16:01:40.818Z,19.00
2018-01-10T16:04:08.215Z,20.00
2018-01-10T16:06:35.623Z,17.93
2018-01-10T16:09:03.024Z,18.07
2018-01-10T16:11:30.427Z,17.60
2018-01-10T16:13:57.832Z,15.53
2018-01-10T16:16:25.282Z,17.07
2018-01-10T16:18:52.673Z,19.40
2018-01-10T16:21:20.162Z,18.13
2018-01-10T16:23:47.554Z,15.73
2018-01-10T16:26:14.938Z,17.80
2018-01-10T16:28:42.342Z,18.67
2018-01-10T16:31:09.739Z,20.97
2018-01-10T16:33:37.145Z,21.00
2018-01-10T16:36:04.523Z,21.00
2018-01-10T16:38:32.722Z,18.57
2018-01-10T16:41:00.124Z,17.23
2018-01-10T16:43:27.515Z,15.70
2018-01-10T16:45:54.933Z,16.70
2018-01-10T16:48:22.336Z,17.17
2018-01-10T16:50:49.724Z,16.43
2018-01-10T16:53:17.123Z,14.80
2018-01-10T16:55:44.519Z,14.70
2018-01-10T16:58:12.008Z,17.20
2018-01-10T17:00:39.399Z,16.13
2018-01-10T17:03:06.798Z,15.20
2018-01-10T17:05:34.192Z,16.33
2018-01-10T17:08:01.595Z,13.77
2018-01-10T17:10:28.991Z,15.17
2018-01-10T17:12:56.393Z,14.97
2018-01-10T17:15:23.790Z,13.80
2018-01-10T17:17:51.216Z,14.00
2018-01-10T17:20:18.613Z,13.53
2018-01-10T17:22:46.003Z,12.90
2018-01-10T17:25:13.417Z,13.73
2018-01-10T17:27:40.814Z,13.20
2018-01-10T17:30:08.235Z,13.83
2018-01-10T17:32:35.626Z,15.20
2018-01-10T17:35:03.032Z,13.10
2018-01-10T17:37:30.427Z,13.80
2018-01-10T17:39:57.827Z,15.67
2018-01-10T17:42:25.228Z,14.03
2018-01-10T17:44:52.631Z,13.30
2018-01-10T17:47:20.034Z,14.30
2018-01-10T17:49:47.434Z,13.70
2018-01-10T17:52:14.832Z,13.87
2018-01-10T17:54:42.230Z,12.43
2018-01-10T17:57:09.630Z,13.00
2018-01-10T17:59:37.040Z,14.50
2018-01-10T18:02:04.434Z,13.43
2018-01-10T18:04:31.838Z,12.67
2018-01-10T18:06:59.252Z,14.00
2018-01-10T18:09:26.668Z,12.83
2018-01-10T18:11:54.071Z,13.77
2018-01-10T18:14:21.462Z,15.67
2018-01-10T18:16:48.871Z,22.20
2018-01-10T18:19:16.254Z,18.50
2018-01-10T18:21:43.678Z,19.53
2018-01-10T18:26:48.079Z,13.00
2018-01-10T18:29:15.477Z,15.70
2018-01-10T18:31:42.885Z,13.50
2018-01-10T18:34:10.387Z,12.17
2018-01-10T18:36:37.783Z,15.17
2018-01-10T18:39:05.224Z,15.10
2018-01-10T18:41:32.647Z,20.83
2018-01-10T18:44:00.048Z,17.97
2018-01-10T18:46:27.462Z,15.73
2018-01-10T18:48:54.859Z,14.90
2018-01-10T18:51:22.280Z,14.47
2018-01-10T18:53:49.666Z,14.63
2018-01-10T18:56:17.074Z,15.07
2018-01-10T18:58:44.551Z,14.30
2018-01-10T19:01:11.961Z,15.33
2018-01-10T19:03:39.351Z,14.30
2018-01-10T19:06:06.746Z,15.70
2018-01-10T19:08:34.183Z,13.70
2018-01-10T19:11:01.611Z,16.27
2018-01-10T19:13:29.006Z,15.27
2018-01-10T19:15:56.403Z,16.10
2018-01-10T19:18:23.830Z,15.00
2018-01-10T19:20:51.231Z,14.80
2018-01-10T19:23:18.635Z,13.83
2018-01-10T19:25:46.027Z,14.80
2018-01-10T19:28:13.435Z,15.17
2018-01-10T19:30:40.832Z,13.97
2018-01-10T19:33:08.236Z,14.03
2018-01-10T19:35:35.629Z,15.00
2018-01-10T19:38:03.028Z,14.30
2018-01-10T19:40:30.420Z,14.67
2018-01-10T19:42:57.822Z,15.67
2018-01-10T19:45:25.239Z,16.57
2018-01-10T19:47:52.645Z,18.17
2018-01-10T19:50:20.040Z,18.40
2018-01-10T19:52:47.435Z,15.77
2018-01-10T19:55:14.834Z,16.03
2018-01-10T19:57:42.239Z,14.47
2018-01-10T20:00:09.634Z,14.83
2018-01-10T20:02:37.044Z,14.00
2018-01-10T20:05:04.443Z,19.07
2018-01-10T20:07:31.832Z,15.50
2018-01-10T20:09:59.235Z,15.77
2018-01-10T20:12:26.639Z,15.07
2018-01-10T20:14:54.041Z,18.50
2018-01-10T20:17:21.432Z,15.80
2018-01-10T20:19:48.837Z,14.93
2018-01-10T20:22:16.229Z,15.90
2018-01-10T20:24:43.623Z,17.00
2018-01-10T20:27:11.014Z,16.63
2018-01-10T20:29:38.419Z,16.47
2018-01-10T20:32:05.870Z,17.57
2018-01-10T20:34:33.270Z,16.37
2018-01-10T20:37:00.683Z,17.87
2018-01-10T20:39:28.119Z,17.63
2018-01-10T20:41:55.495Z,17.93
2018-01-10T20:44:22.917Z,17.27
2018-01-10T20:46:50.314Z,16.93
2018-01-10T20:49:17.712Z,16.10
2018-01-10T20:51:45.111Z,15.80
2018-01-10T20:54:12.493Z,17.27
2018-01-10T20:56:39.901Z,17.60
2018-01-10T20:59:07.303Z,17.37
2018-01-10T21:01:34.706Z,15.23
2018-01-10T21:04:02.096Z,16.33
2018-01-10T21:06:29.502Z,15.77
2018-01-10T21:08:56.900Z,15.50
2018-01-10T21:11:24.315Z,16.00
2018-01-10T21:13:51.706Z,15.10
2018-01-10T21:16:19.111Z,16.57
2018-01-10T21:18:46.515Z,17.20
2018-01-10T21:21:13.922Z,16.80
2018-01-10T21:23:41.338Z,16.10
2018-01-10T21:26:08.771Z,14.87
2018-01-10T21:28:36.181Z,14.57
2018-01-10T21:31:03.699Z,13.90
2018-01-10T21:33:31.136Z,13.07
2018-01-10T21:35:58.542Z,12.77
2018-01-10T21:38:25.955Z,11.83
2018-01-10T21:40:53.330Z,11.80
2018-01-10T21:43:20.734Z,10.03
2018-01-10T21:45:48.147Z,11.40
2018-01-10T21:48:15.543Z,12.93
2018-01-10T21:50:42.970Z,16.70
2018-01-10T21:53:10.374Z,14.80
2018-01-10T21:55:37.862Z,14.57
2018-01-10T21:58:05.267Z,14.83
2018-01-10T22:00:32.663Z,13.93
2018-01-10T22:03:00.111Z,13.97
2018-01-10T22:05:27.523Z,25.20
2018-01-10T22:07:54.931Z,21.07
2018-01-10T22:10:22.342Z,16.73
2018-01-10T22:12:49.748Z,10.77
2018-01-10T22:15:17.185Z,12.10
2018-01-10T22:17:44.582Z,13.30
2018-01-10T22:20:11.260Z,12.57
2018-01-10T22:22:38.667Z,11.97
2018-01-10T22:25:06.064Z,12.30
2018-01-10T22:27:33.471Z,11.77
2018-01-10T22:30:00.876Z,12.07
2018-01-10T22:32:28.271Z,10.87
2018-01-10T22:34:55.671Z,12.73
2018-01-10T22:37:23.067Z,13.43
2018-01-10T22:39:50.534Z,12.63
2018-01-10T22:42:17.914Z,10.93
2018-01-10T22:44:45.342Z,11.77
2018-01-10T22:47:12.742Z,13.27
2018-01-10T22:49:40.135Z,12.40
2018-01-10T22:52:07.527Z,12.77
2018-01-10T22:54:34.928Z,12.40
2018-01-10T22:57:02.319Z,12.00
2018-01-10T22:59:29.730Z,12.30
2018-01-10T23:01:57.118Z,11.75
2018-01-10T23:04:24.512Z,11.00
2018-01-10T23:06:51.908Z,9.60
2018-01-10T23:09:19.290Z,12.30
2018-01-10T23:11:46.737Z,11.43
2018-01-10T23:14:14.083Z,13.07
2018-01-10T23:16:40.773Z,14.43
2018-01-10T23:19:08.167Z,13.87
2018-01-10T23:21:35.560Z,15.67
2018-01-10T23:24:02.971Z,13.87
2018-01-10T23:26:30.371Z,14.57
2018-01-10T23:28:57.763Z,15.13
2018-01-10T23:31:25.172Z,14.40
2018-01-10T23:33:52.567Z,14.80
2018-01-10T23:36:19.967Z,13.93
2018-01-10T23:38:47.358Z,14.80
2018-01-10T23:41:14.854Z,16.00
2018-01-10T23:43:42.243Z,16.70
2018-01-10T23:46:09.638Z,14.60
2018-01-10T23:48:37.030Z,16.00
2018-01-10T23:51:04.437Z,14.73
2018-01-10T23:53:31.826Z,13.77
2018-01-10T23:55:59.226Z,12.80
2018-01-10T23:58:26.631Z,16.77
